Time;durP1;ratioP1;P1;durP2;ratioP2;P2;SDS_P1;SDS_P2;PMS_P1;PMS_P2;Temp;Humidity;BMP_temperature;BMP_pressure;BME280_temperature;BME280_humidity;BME280_pressure;Samples;Min_cycle;Max_cycle;Signal;HPM_P1;HPM_P2
2023/09/07 00:00:15;;;;;;;9.23;6.72;;;;;;;18.40;100.00;100918.78;8461479;27;20035;-86
2023/09/07 00:04:15;;;;;;;11.40;7.63;;;;;;;18.44;100.00;100914.66;8464020;27;20042;-86
2023/09/07 00:08:16;;;;;;;10.38;6.82;;;;;;;18.42;100.00;100905.75;8454878;27;20043;-86
2023/09/07 00:12:16;;;;;;;13.40;7.00;;;;;;;18.37;100.00;100913.69;8458691;27;20040;-85
2023/09/07 00:16:17;;;;;;;13.13;7.60;;;;;;;18.24;100.00;100905.16;8462109;27;20040;-86
2023/09/07 00:20:19;;;;;;;13.93;8.13;;;;;;;18.36;100.00;100922.03;8479282;27;20035;-86
2023/09/07 00:24:19;;;;;;;14.43;7.18;;;;;;;18.17;100.00;100922.50;8462214;27;20046;-86
2023/09/07 00:28:20;;;;;;;25.90;8.68;;;;;;;18.12;100.00;100920.28;8463714;27;20415;-81
2023/09/07 00:32:21;;;;;;;12.18;8.38;;;;;;;18.11;100.00;100921.31;8469978;27;20624;-81
2023/09/07 00:36:21;;;;;;;14.40;9.02;;;;;;;18.06;100.00;100914.69;8434068;27;20532;-82
2023/09/07 00:40:22;;;;;;;13.18;8.43;;;;;;;18.00;100.00;100924.47;8441581;28;20044;-85
2023/09/07 00:44:23;;;;;;;12.27;8.20;;;;;;;17.91;100.00;100922.78;8438640;28;20040;-86
2023/09/07 00:48:23;;;;;;;14.55;9.48;;;;;;;18.05;100.00;100908.34;8446397;27;20535;-86
2023/09/07 00:52:24;;;;;;;14.35;8.95;;;;;;;18.02;100.00;100924.28;8421578;27;20126;-86
2023/09/07 00:56:26;;;;;;;15.02;8.60;;;;;;;17.99;100.00;100914.53;8418612;28;20050;-86
2023/09/07 01:00:27;;;;;;;17.17;8.93;;;;;;;17.80;100.00;100906.75;8449700;28;20039;-85
2023/09/07 01:04:28;;;;;;;11.25;8.35;;;;;;;17.77;100.00;100919.91;8435353;27;20123;-86
2023/09/07 01:08:38;;;;;;;16.33;9.48;;;;;;;17.71;100.00;100905.09;8435799;27;20557;-86
2023/09/07 01:12:40;;;;;;;11.43;8.60;;;;;;;17.81;100.00;100905.72;8411772;27;20039;-86
2023/09/07 01:16:41;;;;;;;14.82;9.23;;;;;;;17.82;100.00;100901.97;8458932;27;20499;-86
2023/09/07 01:20:44;;;;;;;14.38;9.10;;;;;;;17.84;100.00;100897.16;8439611;28;20050;-86
2023/09/07 01:24:45;;;;;;;14.63;8.52;;;;;;;17.77;100.00;100887.97;8450965;27;20047;-86
2023/09/07 01:28:46;;;;;;;15.57;9.30;;;;;;;17.89;100.00;100897.47;8433839;27;20043;-86
2023/09/07 01:32:49;;;;;;;16.52;10.18;;;;;;;17.86;100.00;100897.84;8444411;28;20039;-86
2023/09/07 01:36:50;;;;;;;15.50;9.50;;;;;;;17.75;100.00;100865.41;8432037;28;20058;-86
2023/09/07 01:40:50;;;;;;;14.85;9.10;;;;;;;17.82;100.00;100901.09;8408438;27;20625;-86
2023/09/07 01:44:51;;;;;;;13.48;9.25;;;;;;;17.59;100.00;100873.69;8448645;28;20122;-86
2023/09/07 01:48:51;;;;;;;15.55;9.55;;;;;;;17.57;100.00;100878.50;8438548;28;20108;-86
2023/09/07 01:52:52;;;;;;;18.30;10.07;;;;;;;17.63;100.00;100872.31;8430450;28;20043;-85
2023/09/07 01:56:52;;;;;;;14.88;9.65;;;;;;;17.64;100.00;100871.28;8449579;28;20498;-86
2023/09/07 02:00:57;;;;;;;12.50;8.73;;;;;;;17.54;100.00;100870.66;8445795;28;20080;-86
2023/09/07 02:04:58;;;;;;;14.77;9.32;;;;;;;17.33;100.00;100870.34;8424629;28;20441;-86
2023/09/07 02:08:59;;;;;;;17.05;9.90;;;;;;;17.25;100.00;100892.22;8441586;28;20043;-86
2023/09/07 02:12:59;;;;;;;13.65;9.27;;;;;;;17.11;100.00;100885.56;8447686;28;20497;-86
2023/09/07 02:17:00;;;;;;;20.05;9.77;;;;;;;17.07;100.00;100884.22;8439053;28;20032;-86
2023/09/07 02:21:02;;;;;;;17.17;9.73;;;;;;;16.97;100.00;100882.69;8444610;27;20036;-86
2023/09/07 02:25:05;;;;;;;16.77;9.35;;;;;;;17.00;100.00;100877.75;8440705;28;20172;-87
2023/09/07 02:29:06;;;;;;;15.98;9.50;;;;;;;16.80;100.00;100856.44;8451898;27;20101;-86
2023/09/07 02:33:07;;;;;;;17.23;9.35;;;;;;;16.91;100.00;100883.38;8443949;28;20043;-86
2023/09/07 02:37:08;;;;;;;11.18;8.45;;;;;;;16.82;100.00;100870.75;8407832;27;20028;-86
2023/09/07 02:41:09;;;;;;;13.20;8.20;;;;;;;16.66;100.00;100862.59;8441519;27;20028;-81
2023/09/07 02:45:11;;;;;;;12.18;8.20;;;;;;;16.74;100.00;100887.19;8434547;28;20032;-81
2023/09/07 02:49:13;;;;;;;11.98;8.60;;;;;;;16.68;100.00;100868.75;8414920;27;20039;-81
2023/09/07 02:53:14;;;;;;;12.18;8.32;;;;;;;16.88;100.00;100884.59;8385636;28;20081;-82
2023/09/07 02:57:15;;;;;;;14.32;8.77;;;;;;;16.82;100.00;100881.69;8441361;28;20032;-83
2023/09/07 03:01:19;;;;;;;15.68;7.68;;;;;;;16.90;100.00;100887.97;8450755;27;20045;-81
2023/09/07 03:05:20;;;;;;;10.65;7.97;;;;;;;16.85;100.00;100878.63;8425892;27;20488;-82
2023/09/07 03:09:21;;;;;;;13.05;7.72;;;;;;;16.73;100.00;100874.53;8446251;28;20058;-82
2023/09/07 03:13:22;;;;;;;11.88;8.38;;;;;;;16.58;100.00;100862.56;8424023;27;20039;-82
2023/09/07 03:17:22;;;;;;;14.13;9.60;;;;;;;16.39;100.00;100843.78;8423023;28;20032;-81
2023/09/07 03:21:29;;;;;;;15.63;9.35;;;;;;;16.40;100.00;100883.69;8437592;28;20401;-81
2023/09/07 03:25:33;;;;;;;12.85;9.00;;;;;;;16.29;100.00;100864.94;8438008;28;20043;-81
2023/09/07 03:29:35;;;;;;;13.65;8.52;;;;;;;16.30;100.00;100885.72;8437822;28;20123;-81
2023/09/07 03:33:38;;;;;;;12.55;8.50;;;;;;;16.31;100.00;100876.53;8439098;28;20118;-81
2023/09/07 03:37:39;;;;;;;13.75;8.57;;;;;;;16.23;100.00;100876.50;8438640;28;20523;-81
2023/09/07 03:41:40;;;;;;;17.15;8.70;;;;;;;16.27;100.00;100862.38;8441675;28;20040;-81
2023/09/07 03:45:41;;;;;;;12.43;9.45;;;;;;;16.28;100.00;100877.72;8436868;28;20044;-82
2023/09/07 03:49:41;;;;;;;13.30;8.45;;;;;;;16.33;100.00;100877.22;8438337;28;20040;-82
2023/09/07 03:53:42;;;;;;;15.00;8.98;;;;;;;16.35;100.00;100870.53;8420868;28;20039;-81
2023/09/07 03:57:44;;;;;;;13.45;8.20;;;;;;;16.28;100.00;100869.53;8437379;28;20066;-81
2023/09/07 04:01:45;;;;;;;13.13;8.70;;;;;;;16.24;100.00;100850.94;8447843;28;20062;-82
2023/09/07 04:05:45;;;;;;;13.27;8.60;;;;;;;16.20;100.00;100852.28;8435889;28;20048;-82
2023/09/07 04:09:46;;;;;;;15.95;8.30;;;;;;;16.29;100.00;100873.97;8394810;28;20514;-81
2023/09/07 04:13:47;;;;;;;15.90;8.98;;;;;;;16.20;100.00;100855.88;8428866;28;20063;-81
2023/09/07 04:17:50;;;;;;;14.05;8.82;;;;;;;16.21;100.00;100867.63;8434556;28;20032;-81
2023/09/07 04:21:51;;;;;;;11.63;8.25;;;;;;;16.22;100.00;100864.75;8425829;28;20028;-82
2023/09/07 04:25:52;;;;;;;12.23;8.20;;;;;;;16.12;100.00;100876.81;8422020;28;20036;-81
2023/09/07 04:29:53;;;;;;;12.65;7.78;;;;;;;16.10;100.00;100887.06;8409552;28;20066;-82
2023/09/07 04:33:54;;;;;;;13.75;8.00;;;;;;;15.93;100.00;100858.03;8431207;28;20632;-82
2023/09/07 04:37:55;;;;;;;14.82;8.70;;;;;;;16.06;100.00;100874.75;8434127;28;20081;-81
2023/09/07 04:41:56;;;;;;;13.48;9.13;;;;;;;16.07;100.00;100865.56;8412761;28;20047;-82
2023/09/07 04:45:56;;;;;;;14.88;8.80;;;;;;;16.08;100.00;100876.31;8412369;28;20032;-82
2023/09/07 04:49:57;;;;;;;12.73;8.55;;;;;;;15.94;100.00;100851.53;8432308;28;20248;-82
2023/09/07 04:53:58;;;;;;;12.85;9.40;;;;;;;15.87;100.00;100843.19;8422350;28;20031;-82
2023/09/07 04:57:58;;;;;;;13.48;8.50;;;;;;;15.91;100.00;100876.41;8411779;28;20043;-80
2023/09/07 05:02:01;;;;;;;17.48;8.75;;;;;;;16.03;100.00;100883.28;8427643;28;20399;-80
2023/09/07 05:06:03;;;;;;;12.07;8.68;;;;;;;16.25;100.00;100896.31;8411333;28;20557;-80
2023/09/07 05:10:06;;;;;;;13.55;8.57;;;;;;;16.22;100.00;100896.66;8422308;28;20028;-85
2023/09/07 05:14:07;;;;;;;12.43;8.18;;;;;;;16.42;100.00;100898.03;8424544;28;20505;-85
2023/09/07 05:18:08;;;;;;;12.25;8.52;;;;;;;16.49;100.00;100893.63;8433994;28;20416;-85
2023/09/07 05:22:09;;;;;;;10.30;7.13;;;;;;;16.30;100.00;100893.91;8403627;28;20039;-80
2023/09/07 05:26:09;;;;;;;11.35;7.90;;;;;;;16.24;100.00;100910.94;8386884;28;20122;-80
2023/09/07 05:30:11;;;;;;;15.05;8.20;;;;;;;16.20;100.00;100895.94;8416862;28;20043;-84
2023/09/07 05:34:12;;;;;;;13.85;7.97;;;;;;;16.16;100.00;100908.22;8406554;27;20042;-85
2023/09/07 05:38:13;;;;;;;11.98;8.45;;;;;;;16.40;100.00;100889.16;8431029;28;20064;-84
2023/09/07 05:42:17;;;;;;;18.08;8.45;;;;;;;16.50;100.00;100878.97;8436782;28;20117;-85
2023/09/07 05:46:17;;;;;;;13.55;7.50;;;;;;;16.89;100.00;100905.41;8396818;28;20055;-84
2023/09/07 05:50:18;;;;;;;13.68;8.35;;;;;;;17.15;100.00;100914.28;8419789;28;20040;-85
2023/09/07 05:54:19;;;;;;;11.07;7.82;;;;;;;17.22;100.00;100889.81;8437748;28;20034;-86
2023/09/07 05:58:19;;;;;;;15.02;8.63;;;;;;;17.66;100.00;100918.47;8417955;28;20036;-86
2023/09/07 06:02:20;;;;;;;14.13;8.38;;;;;;;17.80;100.00;100904.03;8423030;28;20082;-86
2023/09/07 06:06:21;;;;;;;14.25;8.50;;;;;;;18.07;100.00;100914.50;8395456;28;20036;-86
2023/09/07 06:10:22;;;;;;;13.82;8.57;;;;;;;18.18;100.00;100914.09;8394021;28;20397;-86
2023/09/07 06:14:23;;;;;;;17.70;9.15;;;;;;;18.43;100.00;100901.13;8412130;28;20039;-86
2023/09/07 06:18:24;;;;;;;15.02;9.15;;;;;;;18.54;99.48;100907.03;8393833;28;20032;-86
2023/09/07 06:22:25;;;;;;;13.60;8.18;;;;;;;18.95;98.42;100924.88;8410024;28;20055;-86
2023/09/07 06:26:26;;;;;;;14.43;8.77;;;;;;;19.35;97.31;100932.75;8419394;28;20043;-85
2023/09/07 06:30:29;;;;;;;12.25;8.60;;;;;;;19.87;94.20;100920.81;8390537;28;20060;-86
2023/09/07 06:34:30;;;;;;;18.58;9.38;;;;;;;20.48;92.69;100925.84;8405875;28;20039;-87
2023/09/07 06:38:32;;;;;;;16.25;9.35;;;;;;;21.02;89.98;100929.81;8393945;28;20038;-87
2023/09/07 06:42:32;;;;;;;13.95;9.07;;;;;;;21.44;88.53;100940.75;8427893;28;20032;-86
2023/09/07 06:46:39;;;;;;;17.83;8.65;;;;;;;21.57;87.72;100932.56;8417093;28;20031;-87
2023/09/07 06:50:39;;;;;;;14.70;7.65;;;;;;;21.90;85.91;100947.44;8425958;28;20416;-87
2023/09/07 06:54:40;;;;;;;11.48;7.10;;;;;;;22.14;84.15;100924.84;8402551;28;20031;-87
2023/09/07 06:58:41;;;;;;;9.52;6.53;;;;;;;22.27;84.33;100949.72;8414953;28;20031;-87
2023/09/07 07:02:42;;;;;;;10.10;5.90;;;;;;;22.50;81.50;100933.72;8428449;28;20048;-87
2023/09/07 07:06:45;;;;;;;7.97;5.50;;;;;;;22.85;80.64;100948.22;8447369;28;20038;-89
2023/09/07 07:10:45;;;;;;;9.10;5.82;;;;;;;22.92;79.55;100949.94;8444024;28;20071;-88
2023/09/07 07:14:46;;;;;;;9.38;5.70;;;;;;;23.13;78.77;100951.66;8437942;28;20046;-87
2023/09/07 07:18:47;;;;;;;9.43;6.05;;;;;;;23.26;78.03;100934.28;8411113;28;20044;-88
2023/09/07 07:22:48;;;;;;;10.20;5.20;;;;;;;23.60;76.04;100947.84;8395942;28;20101;-89
2023/09/07 07:26:51;;;;;;;11.00;5.07;;;;;;;23.77;75.71;100954.59;8406263;28;20046;-88
2023/09/07 07:30:53;;;;;;;6.32;4.90;;;;;;;23.91;75.74;100972.88;8428392;28;20047;-87
2023/09/07 07:34:54;;;;;;;6.13;4.88;;;;;;;23.72;74.95;100940.63;8427750;28;20071;-86
2023/09/07 07:38:56;;;;;;;4.85;4.03;;;;;;;23.99;74.66;100967.13;8431025;28;20036;-88
2023/09/07 07:42:57;;;;;;;5.88;4.13;;;;;;;24.00;75.46;100955.03;8433379;28;20042;-86
2023/09/07 07:46:58;;;;;;;5.55;3.95;;;;;;;24.22;73.88;100942.63;8412654;28;20051;-88
2023/09/07 07:51:03;;;;;;;6.60;4.28;;;;;;;24.06;74.60;100921.00;8438392;27;20493;-87
2023/09/07 07:55:04;;;;;;;6.10;4.50;;;;;;;24.27;75.00;100928.97;8435393;28;20032;-89
2023/09/07 07:59:05;;;;;;;5.75;4.13;;;;;;;24.65;73.71;100932.63;8432983;28;20060;-88
2023/09/07 08:03:06;;;;;;;5.93;4.40;;;;;;;24.94;71.73;100962.44;8414354;28;20043;-82
2023/09/07 08:07:08;;;;;;;6.32;4.35;;;;;;;24.69;71.04;100936.66;8447696;28;20420;-82
2023/09/07 08:11:10;;;;;;;5.72;4.25;;;;;;;24.78;70.22;100946.38;8414762;28;20447;-82
2023/09/07 08:15:14;;;;;;;11.57;4.32;;;;;;;24.98;70.16;100949.88;8421578;28;20032;-82
2023/09/07 08:19:15;;;;;;;5.45;3.58;;;;;;;25.09;70.06;100965.75;8419410;28;20050;-82
2023/09/07 08:23:15;;;;;;;7.72;3.67;;;;;;;25.19;69.13;100949.50;8431022;28;20470;-83
2023/09/07 08:27:18;;;;;;;6.15;4.25;;;;;;;25.64;70.09;100953.81;8430590;28;20059;-82
2023/09/07 08:31:22;;;;;;;5.80;3.53;;;;;;;25.62;67.52;100958.75;8430703;28;20090;-81
2023/09/07 08:35:26;;;;;;;5.65;3.80;;;;;;;25.50;67.85;100948.63;8450791;28;20130;-82
2023/09/07 08:39:27;;;;;;;6.75;3.58;;;;;;;25.84;69.13;100951.69;8447098;28;20042;-83
2023/09/07 08:43:29;;;;;;;5.38;3.85;;;;;;;25.89;66.54;100948.25;8445687;28;20035;-83
2023/09/07 08:47:31;;;;;;;5.78;3.63;;;;;;;25.83;67.34;100938.06;8436105;28;20044;-83
2023/09/07 08:51:32;;;;;;;7.75;3.85;;;;;;;25.88;67.52;100941.84;8413080;28;20039;-83
2023/09/07 08:55:33;;;;;;;4.03;3.17;;;;;;;26.09;67.54;100946.97;8412866;28;20056;-82
2023/09/07 08:59:34;;;;;;;5.93;3.70;;;;;;;26.20;68.11;100940.63;8445690;28;20032;-81
2023/09/07 09:03:35;;;;;;;6.68;3.42;;;;;;;26.41;66.92;100926.28;8412835;28;20039;-83
2023/09/07 09:07:37;;;;;;;6.78;3.40;;;;;;;26.76;66.92;100932.88;8418188;28;20070;-82
2023/09/07 09:11:38;;;;;;;5.47;3.88;;;;;;;26.46;66.43;100918.13;8412676;28;20500;-82
2023/09/07 09:15:38;;;;;;;10.55;3.55;;;;;;;26.43;67.64;100924.13;8396835;28;20166;-84
2023/09/07 09:19:39;;;;;;;8.68;3.80;;;;;;;26.40;67.59;100910.72;8396049;28;20036;-83
2023/09/07 09:23:40;;;;;;;13.18;3.97;;;;;;;26.71;66.93;100921.63;8395282;28;20032;-83
2023/09/07 09:27:41;;;;;;;5.90;3.42;;;;;;;27.02;65.88;100919.66;8432521;28;20071;-83
2023/09/07 09:31:42;;;;;;;7.97;3.75;;;;;;;28.37;62.77;100922.94;8387601;28;20055;-83
2023/09/07 09:35:43;;;;;;;4.63;3.78;;;;;;;29.93;58.93;100885.63;8414944;28;20135;-83
2023/09/07 09:39:48;;;;;;;5.55;3.45;;;;;;;31.31;57.33;100915.72;8411143;28;20032;-83
2023/09/07 09:43:51;;;;;;;5.20;3.58;;;;;;;32.27;53.15;100892.88;8410599;28;20040;-83
2023/09/07 09:47:54;;;;;;;4.90;3.33;;;;;;;32.57;52.81;100914.56;8427717;28;20042;-83
2023/09/07 09:51:56;;;;;;;7.23;3.30;;;;;;;32.72;52.46;100886.59;8427857;28;20054;-83
2023/09/07 09:55:57;;;;;;;6.20;3.70;;;;;;;32.84;52.12;100890.78;8421720;28;20089;-84
2023/09/07 09:59:59;;;;;;;6.68;3.13;;;;;;;33.36;52.19;100885.00;8417266;28;20035;-87
2023/09/07 10:04:00;;;;;;;6.20;3.20;;;;;;;33.54;50.79;100860.00;8427210;28;20042;-87
2023/09/07 10:08:05;;;;;;;3.47;3.17;;;;;;;33.64;51.17;100876.00;8386420;28;20032;-90
2023/09/07 10:12:12;;;;;;;3.35;2.85;;;;;;;33.56;50.01;100863.38;8407101;28;20050;-82
2023/09/07 10:16:12;;;;;;;4.50;3.42;;;;;;;34.07;49.91;100863.25;8410301;28;20088;-82
2023/09/07 10:20:12;;;;;;;4.78;3.05;;;;;;;34.69;48.92;100855.09;8420429;28;20188;-83
2023/09/07 10:24:30;;;;;;;4.90;3.03;;;;;;;34.13;50.02;100882.63;8409683;28;20063;-83
2023/09/07 10:28:31;;;;;;;6.85;3.28;;;;;;;34.38;49.90;100876.06;8430516;28;20047;-82
2023/09/07 10:32:40;;;;;;;7.38;3.42;;;;;;;35.49;47.79;100871.34;8449977;28;20035;-83
2023/09/07 10:36:41;;;;;;;6.47;3.28;;;;;;;35.01;48.83;100877.94;8399843;28;20110;-84
2023/09/07 10:40:46;;;;;;;8.93;3.97;;;;;;;35.24;48.67;100865.94;8419776;28;20044;-84
2023/09/07 10:44:46;;;;;;;4.93;3.03;;;;;;;35.54;47.34;100840.34;8409044;28;20044;-83
2023/09/07 10:48:50;;;;;;;7.25;2.95;;;;;;;35.80;47.46;100852.19;8375619;28;20043;-83
2023/09/07 10:52:51;;;;;;;6.68;3.42;;;;;;;36.38;46.84;100859.38;8436941;28;20039;-83
2023/09/07 10:56:53;;;;;;;4.93;3.00;;;;;;;37.09;45.49;100835.47;8460747;28;20167;-83
2023/09/07 11:00:54;;;;;;;3.55;2.78;;;;;;;37.30;45.39;100845.28;8418246;28;20035;-83
2023/09/07 11:04:55;;;;;;;5.35;3.00;;;;;;;36.59;45.05;100818.50;8422758;28;20040;-83
2023/09/07 11:08:59;;;;;;;4.68;2.80;;;;;;;36.61;44.94;100856.50;8432526;28;20062;-83
2023/09/07 11:13:06;;;;;;;3.28;2.67;;;;;;;36.54;45.26;100841.13;8442184;28;20045;-89
2023/09/07 11:17:07;;;;;;;5.43;3.00;;;;;;;36.25;44.98;100829.94;8425015;28;20450;-83
2023/09/07 11:21:07;;;;;;;5.32;2.70;;;;;;;36.20;44.76;100830.03;8444746;28;20027;-83
2023/09/07 11:25:11;;;;;;;5.07;2.65;;;;;;;36.60;44.45;100820.16;8392047;28;20039;-83
2023/09/07 11:29:18;;;;;;;;;;;;;;;37.07;44.46;100826.47;8408346;28;20040;-83
2023/09/07 11:33:20;;;;;;;4.72;2.70;;;;;;;36.82;44.13;100824.06;8407537;28;19916;-82
2023/09/07 11:37:25;;;;;;;6.38;2.92;;;;;;;36.63;44.90;100837.31;8414788;28;20047;-82
2023/09/07 11:41:26;;;;;;;3.38;2.97;;;;;;;36.26;45.38;100819.53;8406635;28;20055;-83
2023/09/07 11:45:26;;;;;;;5.80;3.17;;;;;;;36.47;46.17;100832.22;8403508;28;20505;-82
2023/09/07 11:49:27;;;;;;;3.10;2.60;;;;;;;36.30;45.27;100821.47;8416784;28;20035;-85
2023/09/07 11:53:27;;;;;;;5.53;3.42;;;;;;;36.16;45.21;100826.13;8436159;28;20036;-83
2023/09/07 11:57:29;;;;;;;4.38;3.33;;;;;;;35.90;44.89;100807.88;8390918;28;20047;-83
2023/09/07 12:01:30;;;;;;;3.30;3.00;;;;;;;35.92;45.82;100800.00;8372806;28;20051;-83
2023/09/07 12:05:33;;;;;;;3.83;2.63;;;;;;;36.29;45.15;100794.44;8423855;28;20123;-83
2023/09/07 12:09:34;;;;;;;;;;;;;;;36.72;45.59;100812.94;8413937;28;20050;-84
2023/09/07 12:13:34;;;;;;;3.03;2.57;;;;;;;36.59;44.43;100795.97;8422046;28;19930;-82
2023/09/07 12:17:38;;;;;;;5.13;2.95;;;;;;;36.47;44.56;100798.41;8387498;28;20353;-83
2023/09/07 12:21:38;;;;;;;5.78;3.05;;;;;;;35.55;46.53;100802.63;8422750;28;20071;-87
2023/09/07 12:25:39;;;;;;;6.38;3.55;;;;;;;34.00;48.52;100795.38;8411226;28;20036;-88
2023/09/07 12:29:39;;;;;;;5.68;3.63;;;;;;;32.67;51.07;100766.97;8436002;28;20082;-88
2023/09/07 12:33:40;;;;;;;4.75;2.80;;;;;;;32.42;52.37;100761.34;8407963;28;20102;-84
2023/09/07 12:37:41;;;;;;;4.53;3.25;;;;;;;31.82;52.50;100758.34;8378576;28;20032;-83
2023/09/07 12:41:44;;;;;;;6.32;3.25;;;;;;;31.65;52.40;100754.91;8414036;28;20096;-87
2023/09/07 12:45:45;;;;;;;4.80;3.30;;;;;;;31.71;52.65;100777.00;8411807;28;20040;-87
2023/09/07 12:49:47;;;;;;;5.70;3.50;;;;;;;31.76;52.19;100773.41;8403573;28;20469;-86
2023/09/07 12:53:48;;;;;;;3.50;3.00;;;;;;;31.49;52.77;100776.34;8380022;28;20039;-87
2023/09/07 12:57:48;;;;;;;3.58;3.28;;;;;;;31.16;53.05;100767.47;8382634;28;20480;-87
2023/09/07 13:01:50;;;;;;;3.33;3.03;;;;;;;31.40;52.99;100758.41;8420172;28;20043;-87
2023/09/07 13:05:51;;;;;;;6.07;3.17;;;;;;;31.69;52.60;100733.66;8445273;28;20558;-85
2023/09/07 13:09:51;;;;;;;5.20;2.97;;;;;;;31.65;51.86;100754.91;8412435;28;20768;-86
2023/09/07 13:13:52;;;;;;;3.63;2.85;;;;;;;31.61;52.04;100736.97;8430433;28;20420;-86
2023/09/07 13:17:53;;;;;;;6.85;2.95;;;;;;;31.59;51.19;100736.44;8423670;28;20111;-86
2023/09/07 13:21:53;;;;;;;3.58;3.08;;;;;;;31.35;52.48;100726.81;8423723;28;20040;-87
2023/09/07 13:25:56;;;;;;;6.88;3.60;;;;;;;31.52;53.71;100721.84;8424727;28;20035;-86
2023/09/07 13:29:57;;;;;;;4.40;2.97;;;;;;;31.51;52.18;100721.03;8396019;28;20486;-86
2023/09/07 13:33:58;;;;;;;3.65;2.70;;;;;;;31.38;51.74;100704.72;8434353;28;20056;-87
2023/09/07 13:37:59;;;;;;;8.30;3.30;;;;;;;31.38;51.61;100706.69;8427088;28;20631;-86
2023/09/07 13:42:00;;;;;;;6.68;3.22;;;;;;;31.29;51.53;100685.97;8427350;28;20038;-86
2023/09/07 13:46:00;;;;;;;3.75;2.97;;;;;;;31.33;51.78;100704.72;8461053;28;20042;-86
2023/09/07 13:50:01;;;;;;;3.72;3.33;;;;;;;31.65;52.09;100715.75;8427290;28;20085;-85
2023/09/07 13:54:01;;;;;;;7.13;2.95;;;;;;;31.65;51.67;100713.78;8426905;28;20561;-86
2023/09/07 13:58:02;;;;;;;6.38;3.60;;;;;;;31.63;52.01;100704.00;8443585;28;20039;-87
2023/09/07 14:02:03;;;;;;;5.95;3.45;;;;;;;31.71;51.15;100709.91;8410991;28;20459;-83
2023/09/07 14:06:03;;;;;;;5.03;2.80;;;;;;;31.44;51.03;100711.19;8423329;28;20033;-83
2023/09/07 14:10:04;;;;;;;4.88;3.40;;;;;;;31.40;50.68;100696.06;8409444;28;20127;-83
2023/09/07 14:14:05;;;;;;;6.45;3.22;;;;;;;31.34;51.43;100680.38;8431555;28;20064;-82
2023/09/07 14:18:07;;;;;;;6.03;2.95;;;;;;;31.69;50.57;100691.72;8443709;28;20484;-82
2023/09/07 14:22:08;;;;;;;4.35;2.78;;;;;;;31.58;50.20;100687.19;8416846;28;20035;-82
2023/09/07 14:26:09;;;;;;;4.85;2.97;;;;;;;31.31;50.38;100676.19;8423815;28;20132;-82
2023/09/07 14:30:10;;;;;;;3.90;3.00;;;;;;;31.43;51.32;100684.34;8413656;28;20028;-83
2023/09/07 14:34:11;;;;;;;5.97;3.10;;;;;;;31.47;50.59;100696.69;8434517;28;20126;-84
2023/09/07 14:38:12;;;;;;;2.95;2.65;;;;;;;31.51;50.43;100686.63;8414898;28;20495;-84
2023/09/07 14:42:16;;;;;;;4.82;3.40;;;;;;;31.48;50.76;100695.56;8401131;28;20100;-84
2023/09/07 14:46:17;;;;;;;3.60;2.97;;;;;;;31.46;50.94;100697.75;8418794;28;20201;-83
2023/09/07 14:50:17;;;;;;;3.13;2.80;;;;;;;31.48;51.28;100689.97;8436316;28;20055;-86
2023/09/07 14:54:18;;;;;;;6.35;3.33;;;;;;;31.46;50.37;100686.59;8400278;28;20152;-88
2023/09/07 14:58:19;;;;;;;8.32;3.28;;;;;;;31.56;49.79;100683.84;8414003;28;20107;-86
2023/09/07 15:02:19;;;;;;;6.78;3.30;;;;;;;31.30;50.25;100673.66;8395248;28;20123;-87
2023/09/07 15:06:20;;;;;;;3.85;3.28;;;;;;;31.40;50.46;100690.47;8406931;28;20308;-85
2023/09/07 15:10:20;;;;;;;4.75;3.22;;;;;;;31.46;50.61;100694.97;8397234;28;20028;-83
2023/09/07 15:14:21;;;;;;;5.70;3.10;;;;;;;31.48;50.29;100692.75;8418723;28;20063;-86
2023/09/07 15:18:21;;;;;;;4.07;3.25;;;;;;;31.45;50.94;100682.13;8428363;28;20048;-83
2023/09/07 15:22:22;;;;;;;4.70;2.90;;;;;;;31.42;50.29;100657.50;8402580;28;20059;-83
2023/09/07 15:26:23;;;;;;;4.95;3.20;;;;;;;31.35;50.21;100682.09;8396707;28;20134;-83
2023/09/07 15:30:24;;;;;;;5.13;3.08;;;;;;;31.25;51.23;100652.09;8443617;28;20405;-83
2023/09/07 15:34:25;;;;;;;3.53;2.83;;;;;;;31.34;49.98;100680.38;8419892;28;20036;-83
2023/09/07 15:38:26;;;;;;;4.05;3.08;;;;;;;31.32;50.60;100660.25;8384900;28;20508;-83
2023/09/07 15:42:27;;;;;;;8.48;3.10;;;;;;;31.27;50.55;100663.00;8419195;28;20036;-83
2023/09/07 15:46:27;;;;;;;4.47;2.97;;;;;;;31.15;50.66;100642.81;8436538;28;20039;-83
2023/09/07 15:50:28;;;;;;;3.47;3.10;;;;;;;31.20;50.77;100651.25;8378308;28;20040;-82
2023/09/07 15:54:28;;;;;;;3.20;2.90;;;;;;;31.10;50.30;100651.19;8420442;28;20036;-83
2023/09/07 15:58:29;;;;;;;5.78;3.05;;;;;;;31.29;49.81;100660.81;8419565;22;20042;-62
2023/09/07 16:02:30;;;;;;;4.65;3.03;;;;;;;31.10;50.77;100659.56;8335140;28;20040;-62
2023/09/07 16:06:30;;;;;;;6.03;3.30;;;;;;;31.05;50.37;100665.13;8368392;28;20048;-62
2023/09/07 16:10:32;;;;;;;3.88;2.70;;;;;;;30.95;50.62;100660.31;8378629;28;20042;-62
2023/09/07 16:14:32;;;;;;;6.63;3.05;;;;;;;30.87;50.53;100662.78;8379265;28;20041;-62
2023/09/07 16:18:35;;;;;;;4.00;3.05;;;;;;;30.89;50.65;100660.56;8378179;28;20044;-62
2023/09/07 16:22:35;;;;;;;7.10;3.40;;;;;;;30.84;51.00;100657.72;8360427;28;20123;-62
2023/09/07 16:26:35;;;;;;;6.25;3.10;;;;;;;30.80;50.57;100656.59;8375360;28;20538;-62
2023/09/07 16:30:36;;;;;;;4.55;3.03;;;;;;;30.75;50.28;100649.03;8380416;28;20056;-62
2023/09/07 16:34:36;;;;;;;5.15;3.13;;;;;;;30.82;50.55;100643.19;8376796;28;20482;-63
2023/09/07 16:38:37;;;;;;;7.03;3.13;;;;;;;30.71;50.70;100641.44;8381158;28;20043;-62
2023/09/07 16:42:37;;;;;;;6.20;3.40;;;;;;;30.65;50.83;100645.28;8374611;28;20132;-63
2023/09/07 16:46:39;;;;;;;3.50;2.83;;;;;;;30.60;50.75;100650.81;8378271;28;20048;-65
2023/09/07 16:50:44;;;;;;;4.82;2.88;;;;;;;30.59;50.86;100657.53;8374825;28;20040;-63
2023/09/07 16:54:44;;;;;;;7.38;2.97;;;;;;;30.47;51.47;100656.88;8373539;28;20409;-63
2023/09/07 16:58:45;;;;;;;4.80;2.90;;;;;;;30.36;51.32;100661.53;8375287;28;20055;-61
2023/09/07 17:02:46;;;;;;;5.13;2.80;;;;;;;30.31;51.46;100670.72;8329328;28;20402;-59
2023/09/07 17:06:46;;;;;;;4.45;3.33;;;;;;;30.10;51.84;100668.81;8332663;28;20591;-60
2023/09/07 17:10:46;;;;;;;5.68;3.08;;;;;;;29.95;52.16;100663.06;8358949;28;20044;-60
2023/09/07 17:14:47;;;;;;;4.30;3.20;;;;;;;29.88;51.97;100667.19;8361726;28;20037;-60
2023/09/07 17:18:47;;;;;;;8.38;3.35;;;;;;;29.74;51.99;100675.16;8375119;28;20402;-59
2023/09/07 17:22:48;;;;;;;4.40;3.00;;;;;;;29.59;52.27;100666.56;8371092;28;20119;-58
2023/09/07 17:26:48;;;;;;;5.38;2.97;;;;;;;29.57;52.30;100679.91;8346072;28;20044;-57
2023/09/07 17:30:49;;;;;;;3.80;3.10;;;;;;;29.36;52.98;100686.34;8375056;28;20036;-56
2023/09/07 17:34:49;;;;;;;6.03;3.03;;;;;;;29.25;52.69;100676.19;8361092;28;20264;-57
2023/09/07 17:38:54;;;;;;;5.85;2.85;;;;;;;29.21;52.55;100686.13;8374420;28;20086;-56
2023/09/07 17:42:55;;;;;;;6.05;2.80;;;;;;;29.04;53.28;100690.94;8372003;28;20584;-57
2023/09/07 17:46:56;;;;;;;3.45;2.80;;;;;;;28.89;53.92;100687.88;8367590;28;20071;-57
2023/09/07 17:50:56;;;;;;;3.45;2.92;;;;;;;28.73;54.29;100688.75;8374605;28;20043;-58
2023/09/07 17:54:57;;;;;;;5.85;3.10;;;;;;;28.67;53.91;100689.78;8367929;28;20106;-58
2023/09/07 17:58:58;;;;;;;6.43;2.95;;;;;;;28.54;54.87;100695.66;8376772;28;20048;-57
2023/09/07 18:03:00;;;;;;;4.05;3.13;;;;;;;28.29;55.52;100693.28;8358646;28;20119;-57
2023/09/07 18:07:01;;;;;;;5.88;3.40;;;;;;;28.19;55.53;100697.81;8380021;28;20051;-56
2023/09/07 18:11:02;;;;;;;8.10;2.90;;;;;;;28.08;55.87;100696.81;8362527;28;20037;-57
2023/09/07 18:15:03;;;;;;;5.57;3.22;;;;;;;27.95;55.95;100701.81;8353403;28;20514;-56
2023/09/07 18:19:04;;;;;;;3.42;2.95;;;;;;;27.87;56.53;100699.47;8366754;28;20536;-57
2023/09/07 18:23:05;;;;;;;5.03;3.33;;;;;;;27.76;56.65;100708.66;8369776;28;20032;-56
2023/09/07 18:27:05;;;;;;;5.55;3.28;;;;;;;27.69;57.14;100703.22;8372034;28;20071;-57
2023/09/07 18:31:08;;;;;;;4.80;3.45;;;;;;;27.51;57.17;100708.16;8376960;28;20044;-57